NCAR-RAP Real-Time Weather Data

Output produced by METARs form (12 August 2020  18:41 UTC)
found at http://weather.rap.ucar.edu/surface/
 
KIAH 121753Z 23005KT 10SM SCT045 SCT250 36/23 A2998 RMK AO2 SLP150 T03560233 10356 20261 58005
KIAH 121653Z 23006KT 10SM SCT038 SCT250 34/23 A3000 RMK AO2 SLP157 T03390233
KIAH 121553Z 24007KT 10SM SCT034 SCT250 33/23 A3001 RMK AO2 SLP161 T03330233
KIAH 121453Z 22008KT 10SM SCT027 SCT250 32/24 A2999 RMK AO2 SLP155 T03170239 50007
KIAH 121353Z 22005KT 10SM FEW018 FEW250 30/25 A3000 RMK AO2 SLP156 T03000250
KIAH 121253Z 00000KT 10SM FEW015 FEW250 28/25 A2999 RMK AO2 SLP152 T02830250
KIAH 121153Z 00000KT 10SM FEW020 27/24 A2997 RMK AO2 SLP147 70007 T02720244 10283 20267 53004
KIAH 121053Z 19003KT 10SM FEW020 27/24 A2996 RMK AO2 SLP142 T02720244
KIAH 120953Z 18004KT 10SM FEW020 27/24 A2995 RMK AO2 SLP142 T02720244
KIAH 120853Z 19003KT 10SM FEW020 27/24 A2996 RMK AO2 SLP143 T02720244 58006
KIAH 120753Z 19003KT 10SM FEW020 27/24 A2997 RMK AO2 SLP147 T02720244
KIAH 120653Z 20003KT 10SM FEW020 28/24 A2997 RMK AO2 SLP148 T02780244
KIAH 120553Z 18004KT 10SM FEW020 28/24 A2997 RMK AO2 SLP149 60000 T02830244 10333 20283 403670250 51006
KIAH 120453Z 17005KT 10SM FEW020 29/24 A2997 RMK AO2 SLP148 T02890244
KIAH 120353Z 17005KT 10SM FEW020 29/24 A2997 RMK AO2 SLP147 T02940244
KIAH 120253Z 17009KT 10SM FEW025 FEW250 30/24 A2996 RMK AO2 SLP142 60000 T03000239 53017
KIAH 120153Z 17008KT 10SM FEW030 FEW250 31/24 A2994 RMK AO2 SLP136 T03110239
KIAH 120053Z 17008KT 10SM FEW035 FEW050 FEW250 32/24 A2992 RMK AO2 RAE09 SLP129 P0000 T03220239
KIAH 112353Z 19004KT 10SM -RA FEW040 FEW055 SCT075 SCT250 33/24 A2991 RMK AO2 RAB37 SLP126 P0007 60007 T03280244 10367 20322 58005
KIAH 112253Z 13014KT 10SM FEW055 SCT070 SCT250 34/25 A2991 RMK AO2 SLP128 T03440250
KIAH 112153Z 12011KT 10SM FEW055 SCT080 SCT110 BKN250 34/25 A2992 RMK AO2 SLP129 T03440250
KIAH 112053Z COR VRB04KT 10SM SCT050 SCT250 36/22 A2992 RMK AO2 SLP131 T03560222 58024
KIAH 111953Z VRB05KT 10SM SCT050 SCT250 36/22 A2995 RMK AO2 SLP139 T03560217
KIAH 111853Z 19005KT 10SM SCT050 36/23 A2998 RMK AO2 SLP149 T03610228
KIAH 111753Z 00000KT 10SM SCT043 35/23 A2999 RMK AO2 SLP155 T03500228 10350 20256 56013
KIAH 111653Z 20005KT 10SM FEW040 34/23 A3000 RMK AO2 SLP159 T03390233
KIAH 111553Z 23006KT 10SM FEW035 33/23 A3001 RMK AO2 SLP162 T03280233
KIAH 111453Z 23006KT 10SM SCT025 32/24 A3003 RMK AO2 SLP167 MDT CU SE-SW T03170244 50006
KIAH 111353Z 22006KT 10SM SCT020 30/25 A3004 RMK AO2 SLP170 T03000250
KIAH 111253Z 17003KT 10SM FEW018 28/25 A3002 RMK AO2 SLP164 T02830250
KIAH 111153Z 18003KT 10SM FEW018 26/24 A3001 RMK AO2 SLP161 T02610244 10283 20250 53006
KIAH 111053Z 00000KT 10SM FEW022 25/24 A3000 RMK AO2 SLP158 T02500239
KIAH 110953Z 18003KT 10SM FEW025 26/24 A2999 RMK AO2 SLP155 T02560244
KIAH 110853Z 17003KT 10SM FEW020 26/24 A2999 RMK AO2 SLP155 T02560239 57001
KIAH 110753Z 18005KT 10SM FEW020 28/24 A2999 RMK AO2 SLP155 T02780244
KIAH 110653Z 17005KT 10SM FEW020 28/24 A2999 RMK AO2 SLP156 T02830244
KIAH 110553Z 17005KT 10SM CLR 28/24 A2999 RMK AO2 SLP156 T02830244 10333 20283 403610244 51005
KIAH 110453Z 17005KT 10SM FEW025 29/24 A2999 RMK AO2 SLP155 T02890244
KIAH 110353Z 17008KT 10SM FEW025 29/24 A2999 RMK AO2 SLP154 T02890244
KIAH 110253Z 18008KT 10SM FEW030 29/24 A2998 RMK AO2 SLP150 T02940239 53003
KIAH 110153Z 18009KT 10SM FEW033 31/23 A2997 RMK AO2 SLP147 T03060233
KIAH 110053Z 17009KT 10SM FEW037 32/23 A2996 RMK AO2 SLP145 T03170233
KIAH 102353Z 18008KT 10SM FEW043 33/23 A2997 RMK AO2 SLP147 T03330233 10361 20333 56011
KIAH 102253Z 17010KT 10SM FEW048 35/23 A2998 RMK AO2 SLP149 T03500228
KIAH 102153Z 17008KT 10SM FEW050 35/23 A2999 RMK AO2 SLP153 T03500228
KIAH 102053Z 15014G17KT 10SM SCT050 36/22 A3000 RMK AO2 SLP158 T03610222 57021
KIAH 101953Z 20007KT 10SM SCT047 34/23 A3002 RMK AO2 SLP165 T03390228
KIAH 101853Z 18010KT 10SM SCT047 35/22 A3005 RMK AO2 SLP173 T03500222